Austin, TX (78715)

2:35 PM CDT on August 03, 2015 (GMT -0500)
West Gate @ Blarwood | | Change Station
CLOSE
Current Station
Personal Weather Station
Location: Austin, TX
Elevation: 700 ft
Nearby Weather Stations

Elev 700 ft 30.21 °N, 97.81 °W | Updated 33 seconds ago

Clear
Clear
98.1 °F
Feels Like 100 °F
N
4.0
Wind Variable Wind from ESE
Gusts 16.0 mph

Today
High -- | Low -- °F
--% Chance of Precip.
Yesterday
High -- | Low -- °F
Precip. -- in
6:50 AM 8:23 PM
Waning Gibbous, 84% visible
Pressure 29.87 in
Visibility 10.0 miles
Clouds Few 8000 ft
Few 30000 ft
Heat Index 100 °F
Dew Point 63 °F
Humidity 32%
Rainfall 0.00 in
Snow Depth Not available.
UV 11 out of 12
Pollen 7.70 out of 12
Air Quality Not available.
Flu Activity Not available.
METAR KAUS 031853Z 07008G14KT 10SM FEW080 FEW300 36/16 A2991 RMK AO2 SLP113 T03560156

More Conditions Fewer Conditions

Pressure 29.87 in
Visibility 10.0 miles
Clouds Few 8000 ft
Few 30000 ft
Heat Index 100 °F
Dew Point 63 °F
Humidity 32%
Rainfall 0.00 in
Snow Depth Not available.
UV 11 out of 12
Pollen 7.70 out of 12
Air Quality Not available.
Flu Activity Not available.
METAR KAUS 031853Z 07008G14KT 10SM FEW080 FEW300 36/16 A2991 RMK AO2 SLP113 T03560156

More Conditions Fewer Conditions

10-Day Weather Forecast

×

Almanac

Astronomy

Aug. 03, 2015 Rise Set
Actual Time
Civil Twilight
Nautical Twilight
Astronomical Twilight
Moon
Length of Visible Light
Length of Day
Tomorrow will be .
, % of the Moon is Illuminated

Today's Extremes

State Highs State Lows

Community

WunderPhotos

Upload Photos

1,843,714 photos uploaded!

WunderBlogs® & News

Nearby

Air Quality

  Air Quality AQ Index Pollutant
Not available.

Snow Depth

Station Depth Elevation

Earthquake Activity

City Distance Mag. Time & Date
Minimum magnitude displayed is 2.5.

Coastal Water Temperatures

Place Temperature

Stations

Nearby Weather Stations

Station Location Temp. Windchill Dew Point Humidity Wind Precip. Elev Updated Type